Portada
METAR-TAF:

METAR-TAF

Aeropuertos :

Livingstone, Zambia

latitud: 17-49-18S, longitud: 025-49-22E, altitud: 991 m

METAR: falta

Hora: 16:31 (14:31 UTC)

Pronóstico

El informe se hizo hace 22 horas y 31 minutos, a las 16:00 UTC
Pronóstico válido del 24 a las 18 UTC al 25 a las 24 UTC
Viento 3 kt con dirección variable
Visibilidad 10 km o más
sin nubes por debajo de 1500 m y sin presencia de cumulonimbus.
Evolucionando progresivamente
del 25 a las 04 UTC al 25 a las 06 UTC
Viento 10 kt del este
Evolucionando progresivamente
del 25 a las 12 UTC al 25 a las 14 UTC
Viento 5 kt del este
Evolucionando progresivamente
del 25 a las 18 UTC al 25 a las 20 UTC
Viento 3 kt con dirección variable

TAF: FLHN 241600Z 2418/2524 VRB03KT CAVOK BECMG 2504/2506 09010KT BECMG 2512/2514 10005KT BECMG 2518/2520 VRB03KT

Observaciones y pronósticos meteorológicos de más de 4000 aeropuertos (mensajes METAR y TAF).

Los puntos amarillos y rojos representan las estaciones disponibles.

Ponga el ratón en el punto deseado para ver el nombre de la estación.

Haga clic para ver las observaciones y los pronósticos meteorológicos.

Para cambiar el mapa : haga clic en los botones verdes con una cruz de color negro para hacer un zoom, en el botón verde con un guión para alejar o en las flechas verdes para mapas adyacentes.


METAR-TAF: